sensor_id;sensor_type;location;lat;lon;timestamp;pressure;altitude;pressure_sealevel;temperature;humidity
12203;BME280;6164;42.178;24.622;2023-02-17T00:01:14;100629.84;;;0.84;100.00
12203;BME280;6164;42.178;24.622;2023-02-17T00:03:40;100617.97;;;0.80;100.00
12203;BME280;6164;42.178;24.622;2023-02-17T00:06:07;100631.03;;;0.79;100.00
12203;BME280;6164;42.178;24.622;2023-02-17T00:08:34;100630.44;;;0.74;100.00
12203;BME280;6164;42.178;24.622;2023-02-17T00:11:02;100626.22;;;0.71;100.00
12203;BME280;6164;42.178;24.622;2023-02-17T00:13:29;100627.25;;;0.69;100.00
12203;BME280;6164;42.178;24.622;2023-02-17T00:15:55;100618.00;;;0.63;100.00
12203;BME280;6164;42.178;24.622;2023-02-17T00:18:22;100616.56;;;0.58;100.00
12203;BME280;6164;42.178;24.622;2023-02-17T00:20:49;100612.97;;;0.60;100.00
12203;BME280;6164;42.178;24.622;2023-02-17T00:23:15;100612.78;;;0.48;100.00
12203;BME280;6164;42.178;24.622;2023-02-17T00:25:42;100614.53;;;0.47;100.00
12203;BME280;6164;42.178;24.622;2023-02-17T00:28:10;100615.78;;;0.40;100.00
12203;BME280;6164;42.178;24.622;2023-02-17T00:30:36;100605.28;;;0.26;100.00
12203;BME280;6164;42.178;24.622;2023-02-17T00:33:03;100603.38;;;0.13;100.00
12203;BME280;6164;42.178;24.622;2023-02-17T00:35:29;100599.03;;;0.13;100.00
12203;BME280;6164;42.178;24.622;2023-02-17T00:37:56;100596.03;;;0.21;100.00
12203;BME280;6164;42.178;24.622;2023-02-17T00:40:22;100592.28;;;0.26;100.00
12203;BME280;6164;42.178;24.622;2023-02-17T00:42:49;100589.38;;;0.32;100.00
12203;BME280;6164;42.178;24.622;2023-02-17T00:45:17;100588.22;;;0.38;100.00
12203;BME280;6164;42.178;24.622;2023-02-17T00:47:43;100591.31;;;0.44;100.00
12203;BME280;6164;42.178;24.622;2023-02-17T00:50:10;100584.44;;;0.43;100.00
12203;BME280;6164;42.178;24.622;2023-02-17T00:52:36;100578.34;;;0.44;100.00
12203;BME280;6164;42.178;24.622;2023-02-17T00:55:03;100580.94;;;0.44;100.00
12203;BME280;6164;42.178;24.622;2023-02-17T00:57:29;100580.19;;;0.42;100.00
12203;BME280;6164;42.178;24.622;2023-02-17T00:59:56;100578.34;;;0.44;100.00
12203;BME280;6164;42.178;24.622;2023-02-17T01:02:24;100567.94;;;0.44;100.00
12203;BME280;6164;42.178;24.622;2023-02-17T01:04:51;100574.81;;;0.45;100.00
12203;BME280;6164;42.178;24.622;2023-02-17T01:07:18;100572.28;;;0.44;100.00
12203;BME280;6164;42.178;24.622;2023-02-17T01:09:44;100559.56;;;0.39;100.00
12203;BME280;6164;42.178;24.622;2023-02-17T01:12:11;100564.16;;;0.34;100.00
12203;BME280;6164;42.178;24.622;2023-02-17T01:14:38;100566.91;;;0.31;100.00
12203;BME280;6164;42.178;24.622;2023-02-17T01:17:04;100562.53;;;0.32;100.00
12203;BME280;6164;42.178;24.622;2023-02-17T01:19:32;100557.28;;;0.33;100.00
12203;BME280;6164;42.178;24.622;2023-02-17T01:21:59;100551.47;;;0.28;100.00
12203;BME280;6164;42.178;24.622;2023-02-17T01:24:25;100553.41;;;0.25;100.00
12203;BME280;6164;42.178;24.622;2023-02-17T01:26:51;100549.03;;;0.25;100.00
12203;BME280;6164;42.178;24.622;2023-02-17T01:29:18;100546.53;;;0.24;100.00
12203;BME280;6164;42.178;24.622;2023-02-17T01:31:44;100546.19;;;0.14;100.00
12203;BME280;6164;42.178;24.622;2023-02-17T01:34:11;100541.22;;;0.10;100.00
12203;BME280;6164;42.178;24.622;2023-02-17T01:36:39;100530.59;;;0.14;100.00
12203;BME280;6164;42.178;24.622;2023-02-17T01:39:05;100536.03;;;0.10;100.00
12203;BME280;6164;42.178;24.622;2023-02-17T01:41:32;100529.41;;;0.04;100.00
12203;BME280;6164;42.178;24.622;2023-02-17T01:46:43;100525.31;;;0.00;100.00
12203;BME280;6164;42.178;24.622;2023-02-17T01:49:14;100518.34;;;0.00;100.00
12203;BME280;6164;42.178;24.622;2023-02-17T01:51:46;100523.44;;;0.02;100.00
12203;BME280;6164;42.178;24.622;2023-02-17T01:54:16;100515.81;;;-0.01;100.00
12203;BME280;6164;42.178;24.622;2023-02-17T01:56:46;100521.84;;;-0.01;100.00
12203;BME280;6164;42.178;24.622;2023-02-17T01:59:14;100524.75;;;-0.07;100.00
12203;BME280;6164;42.178;24.622;2023-02-17T02:01:42;100522.16;;;-0.07;100.00
12203;BME280;6164;42.178;24.622;2023-02-17T02:04:09;100517.91;;;-0.08;100.00
12203;BME280;6164;42.178;24.622;2023-02-17T02:06:35;100518.91;;;-0.10;100.00
12203;BME280;6164;42.178;24.622;2023-02-17T02:09:06;100516.53;;;-0.15;100.00
12203;BME280;6164;42.178;24.622;2023-02-17T02:11:33;100512.06;;;-0.28;100.00
12203;BME280;6164;42.178;24.622;2023-02-17T02:13:59;100525.78;;;-0.26;100.00
12203;BME280;6164;42.178;24.622;2023-02-17T02:16:28;100517.03;;;-0.58;100.00
12203;BME280;6164;42.178;24.622;2023-02-17T02:19:02;100519.81;;;-0.96;100.00
12203;BME280;6164;42.178;24.622;2023-02-17T02:21:58;100510.78;;;-1.06;100.00
12203;BME280;6164;42.178;24.622;2023-02-17T02:24:37;100502.16;;;-1.24;100.00
12203;BME280;6164;42.178;24.622;2023-02-17T02:35:24;100507.91;;;-1.55;100.00
12203;BME280;6164;42.178;24.622;2023-02-17T02:37:56;100513.22;;;-1.58;100.00
12203;BME280;6164;42.178;24.622;2023-02-17T02:40:26;100512.50;;;-1.61;100.00
12203;BME280;6164;42.178;24.622;2023-02-17T02:42:54;100516.72;;;-1.59;100.00
12203;BME280;6164;42.178;24.622;2023-02-17T02:45:21;100510.28;;;-1.69;100.00
12203;BME280;6164;42.178;24.622;2023-02-17T02:47:50;100508.16;;;-1.79;100.00
12203;BME280;6164;42.178;24.622;2023-02-17T02:50:17;100509.78;;;-1.95;100.00
12203;BME280;6164;42.178;24.622;2023-02-17T02:52:54;100507.03;;;-1.92;100.00
12203;BME280;6164;42.178;24.622;2023-02-17T02:55:25;100509.97;;;-1.81;100.00
12203;BME280;6164;42.178;24.622;2023-02-17T02:57:55;100509.78;;;-1.77;100.00
12203;BME280;6164;42.178;24.622;2023-02-17T03:00:28;100508.00;;;-1.75;100.00
12203;BME280;6164;42.178;24.622;2023-02-17T03:02:58;100508.72;;;-1.73;100.00
12203;BME280;6164;42.178;24.622;2023-02-17T03:05:27;100498.69;;;-1.60;100.00
12203;BME280;6164;42.178;24.622;2023-02-17T03:08:00;100500.06;;;-1.53;100.00
12203;BME280;6164;42.178;24.622;2023-02-17T03:10:28;100503.19;;;-1.47;100.00
12203;BME280;6164;42.178;24.622;2023-02-17T03:12:55;100499.03;;;-1.49;100.00
12203;BME280;6164;42.178;24.622;2023-02-17T03:15:24;100503.16;;;-1.45;100.00
12203;BME280;6164;42.178;24.622;2023-02-17T03:17:51;100504.53;;;-1.38;100.00
12203;BME280;6164;42.178;24.622;2023-02-17T03:20:17;100493.34;;;-1.39;100.00
12203;BME280;6164;42.178;24.622;2023-02-17T03:22:44;100500.50;;;-1.44;100.00
12203;BME280;6164;42.178;24.622;2023-02-17T03:25:13;100496.06;;;-1.42;100.00
12203;BME280;6164;42.178;24.622;2023-02-17T03:27:40;100498.09;;;-1.29;100.00
12203;BME280;6164;42.178;24.622;2023-02-17T03:30:07;100503.00;;;-1.42;100.00
12203;BME280;6164;42.178;24.622;2023-02-17T03:32:34;100506.22;;;-1.56;100.00
12203;BME280;6164;42.178;24.622;2023-02-17T03:35:00;100508.91;;;-1.96;100.00
12203;BME280;6164;42.178;24.622;2023-02-17T03:37:27;100516.13;;;-2.02;100.00
12203;BME280;6164;42.178;24.622;2023-02-17T03:39:53;100514.19;;;-2.17;100.00
12203;BME280;6164;42.178;24.622;2023-02-17T03:42:21;100524.75;;;-2.22;100.00
12203;BME280;6164;42.178;24.622;2023-02-17T03:44:47;100517.75;;;-2.20;100.00
12203;BME280;6164;42.178;24.622;2023-02-17T03:47:14;100508.97;;;-2.16;100.00
12203;BME280;6164;42.178;24.622;2023-02-17T03:49:40;100510.78;;;-2.18;100.00
12203;BME280;6164;42.178;24.622;2023-02-17T03:52:07;100509.09;;;-2.19;100.00
12203;BME280;6164;42.178;24.622;2023-02-17T03:54:33;100505.84;;;-2.04;100.00
12203;BME280;6164;42.178;24.622;2023-02-17T03:57:00;100511.50;;;-1.96;100.00
12203;BME280;6164;42.178;24.622;2023-02-17T03:59:28;100508.84;;;-1.94;100.00
12203;BME280;6164;42.178;24.622;2023-02-17T04:01:54;100508.47;;;-1.85;100.00
12203;BME280;6164;42.178;24.622;2023-02-17T04:04:21;100506.09;;;-1.90;100.00
12203;BME280;6164;42.178;24.622;2023-02-17T04:06:47;100504.94;;;-1.84;100.00
12203;BME280;6164;42.178;24.622;2023-02-17T04:09:14;100501.78;;;-1.91;100.00
12203;BME280;6164;42.178;24.622;2023-02-17T04:11:41;100506.66;;;-1.83;100.00
12203;BME280;6164;42.178;24.622;2023-02-17T04:14:07;100507.22;;;-1.77;100.00
12203;BME280;6164;42.178;24.622;2023-02-17T04:16:35;100504.56;;;-1.75;100.00
12203;BME280;6164;42.178;24.622;2023-02-17T04:19:03;100504.63;;;-1.77;100.00
12203;BME280;6164;42.178;24.622;2023-02-17T04:21:29;100498.53;;;-1.76;100.00
12203;BME280;6164;42.178;24.622;2023-02-17T04:23:56;100498.38;;;-1.73;100.00
12203;BME280;6164;42.178;24.622;2023-02-17T04:26:22;100498.94;;;-1.66;100.00
12203;BME280;6164;42.178;24.622;2023-02-17T04:28:49;100499.53;;;-1.78;100.00
12203;BME280;6164;42.178;24.622;2023-02-17T04:31:15;100498.94;;;-1.66;100.00
12203;BME280;6164;42.178;24.622;2023-02-17T04:33:43;100499.94;;;-1.69;100.00
12203;BME280;6164;42.178;24.622;2023-02-17T04:36:10;100494.69;;;-1.67;100.00
12203;BME280;6164;42.178;24.622;2023-02-17T04:38:37;100495.31;;;-1.62;100.00
12203;BME280;6164;42.178;24.622;2023-02-17T04:41:03;100497.06;;;-1.63;100.00
12203;BME280;6164;42.178;24.622;2023-02-17T04:43:31;100489.13;;;-1.60;100.00
12203;BME280;6164;42.178;24.622;2023-02-17T04:45:58;100482.06;;;-1.56;100.00
12203;BME280;6164;42.178;24.622;2023-02-17T04:48:24;100481.94;;;-1.53;100.00
12203;BME280;6164;42.178;24.622;2023-02-17T04:50:52;100483.47;;;-1.49;100.00
12203;BME280;6164;42.178;24.622;2023-02-17T04:53:19;100479.78;;;-1.44;100.00
12203;BME280;6164;42.178;24.622;2023-02-17T04:55:46;100482.91;;;-1.37;100.00
12203;BME280;6164;42.178;24.622;2023-02-17T04:59:49;100490.63;;;-1.36;100.00
12203;BME280;6164;42.178;24.622;2023-02-17T05:02:15;100493.13;;;-1.34;100.00
12203;BME280;6164;42.178;24.622;2023-02-17T05:04:42;100479.81;;;-1.26;100.00
12203;BME280;6164;42.178;24.622;2023-02-17T05:07:08;100478.91;;;-1.25;100.00
12203;BME280;6164;42.178;24.622;2023-02-17T05:09:35;100481.56;;;-1.27;100.00
12203;BME280;6164;42.178;24.622;2023-02-17T05:12:01;100483.16;;;-1.24;100.00
12203;BME280;6164;42.178;24.622;2023-02-17T05:14:29;100490.00;;;-1.23;100.00
12203;BME280;6164;42.178;24.622;2023-02-17T05:16:57;100488.19;;;-1.21;100.00
12203;BME280;6164;42.178;24.622;2023-02-17T05:19:23;100489.59;;;-1.14;100.00
12203;BME280;6164;42.178;24.622;2023-02-17T05:21:50;100475.16;;;-1.20;100.00
12203;BME280;6164;42.178;24.622;2023-02-17T05:24:16;100478.06;;;-1.26;100.00
12203;BME280;6164;42.178;24.622;2023-02-17T05:26:43;100479.09;;;-1.30;100.00
12203;BME280;6164;42.178;24.622;2023-02-17T05:29:09;100481.22;;;-1.38;100.00
12203;BME280;6164;42.178;24.622;2023-02-17T05:31:36;100483.97;;;-1.41;100.00
12203;BME280;6164;42.178;24.622;2023-02-17T05:34:04;100476.19;;;-1.41;100.00
12203;BME280;6164;42.178;24.622;2023-02-17T05:36:30;100487.66;;;-1.47;100.00
12203;BME280;6164;42.178;24.622;2023-02-17T05:38:57;100464.34;;;-1.47;100.00
12203;BME280;6164;42.178;24.622;2023-02-17T05:41:23;100490.75;;;-1.39;100.00
12203;BME280;6164;42.178;24.622;2023-02-17T05:43:50;100491.94;;;-1.27;100.00
12203;BME280;6164;42.178;24.622;2023-02-17T05:46:16;100496.66;;;-1.18;100.00
12203;BME280;6164;42.178;24.622;2023-02-17T05:48:43;100506.69;;;-1.10;100.00
12203;BME280;6164;42.178;24.622;2023-02-17T05:51:11;100492.50;;;-1.03;100.00
12203;BME280;6164;42.178;24.622;2023-02-17T05:53:41;100496.72;;;-1.01;100.00
12203;BME280;6164;42.178;24.622;2023-02-17T05:56:07;100494.44;;;-0.90;100.00
12203;BME280;6164;42.178;24.622;2023-02-17T05:58:34;100512.06;;;-0.79;100.00
12203;BME280;6164;42.178;24.622;2023-02-17T06:01:00;100514.88;;;-0.67;100.00
12203;BME280;6164;42.178;24.622;2023-02-17T06:03:27;100511.69;;;-0.55;100.00
12203;BME280;6164;42.178;24.622;2023-02-17T06:05:53;100509.47;;;-0.45;100.00
12203;BME280;6164;42.178;24.622;2023-02-17T06:08:21;100507.84;;;-0.31;100.00
12203;BME280;6164;42.178;24.622;2023-02-17T06:10:47;100505.47;;;-0.18;100.00
12203;BME280;6164;42.178;24.622;2023-02-17T06:13:14;100515.91;;;-0.20;100.00
12203;BME280;6164;42.178;24.622;2023-02-17T06:15:40;100526.13;;;0.00;100.00
12203;BME280;6164;42.178;24.622;2023-02-17T06:18:07;100522.97;;;0.11;100.00
12203;BME280;6164;42.178;24.622;2023-02-17T06:20:33;100515.38;;;0.24;100.00
12203;BME280;6164;42.178;24.622;2023-02-17T06:23:00;100513.19;;;0.32;100.00
12203;BME280;6164;42.178;24.622;2023-02-17T06:25:28;100509.28;;;0.40;100.00
12203;BME280;6164;42.178;24.622;2023-02-17T06:27:54;100516.34;;;0.54;100.00
12203;BME280;6164;42.178;24.622;2023-02-17T06:30:20;100511.31;;;0.66;100.00
12203;BME280;6164;42.178;24.622;2023-02-17T06:32:47;100519.19;;;0.80;100.00
12203;BME280;6164;42.178;24.622;2023-02-17T06:35:13;100531.16;;;0.98;100.00
12203;BME280;6164;42.178;24.622;2023-02-17T06:37:40;100530.47;;;1.10;100.00
12203;BME280;6164;42.178;24.622;2023-02-17T06:40:07;100535.13;;;1.05;100.00
12203;BME280;6164;42.178;24.622;2023-02-17T06:42:35;100508.84;;;1.10;100.00
12203;BME280;6164;42.178;24.622;2023-02-17T06:45:02;100513.41;;;1.20;100.00
12203;BME280;6164;42.178;24.622;2023-02-17T06:47:30;100528.91;;;1.38;100.00
12203;BME280;6164;42.178;24.622;2023-02-17T06:49:56;100531.63;;;1.50;100.00
12203;BME280;6164;42.178;24.622;2023-02-17T06:52:23;100532.34;;;1.68;100.00
12203;BME280;6164;42.178;24.622;2023-02-17T06:54:49;100532.94;;;1.87;100.00
12203;BME280;6164;42.178;24.622;2023-02-17T06:57:16;100529.44;;;2.02;100.00
12203;BME280;6164;42.178;24.622;2023-02-17T06:59:44;100527.00;;;2.13;100.00
12203;BME280;6164;42.178;24.622;2023-02-17T07:02:11;100521.63;;;2.30;100.00
12203;BME280;6164;42.178;24.622;2023-02-17T07:04:37;100512.78;;;2.46;100.00
12203;BME280;6164;42.178;24.622;2023-02-17T07:07:04;100515.53;;;2.57;100.00
12203;BME280;6164;42.178;24.622;2023-02-17T07:09:30;100524.34;;;2.83;100.00
12203;BME280;6164;42.178;24.622;2023-02-17T07:11:57;100525.78;;;3.01;100.00
12203;BME280;6164;42.178;24.622;2023-02-17T07:14:24;100529.47;;;3.11;100.00
12203;BME280;6164;42.178;24.622;2023-02-17T07:16:52;100530.72;;;3.18;100.00
12203;BME280;6164;42.178;24.622;2023-02-17T07:19:18;100530.16;;;3.27;100.00
12203;BME280;6164;42.178;24.622;2023-02-17T07:21:48;100521.53;;;3.39;100.00
12203;BME280;6164;42.178;24.622;2023-02-17T07:24:14;100521.56;;;3.52;100.00
12203;BME280;6164;42.178;24.622;2023-02-17T07:26:40;100527.00;;;3.61;100.00
12203;BME280;6164;42.178;24.622;2023-02-17T07:29:07;100518.78;;;3.80;100.00
12203;BME280;6164;42.178;24.622;2023-02-17T07:31:34;100526.41;;;3.95;100.00
12203;BME280;6164;42.178;24.622;2023-02-17T07:34:02;100533.63;;;4.17;100.00
12203;BME280;6164;42.178;24.622;2023-02-17T07:36:29;100534.03;;;4.36;100.00
12203;BME280;6164;42.178;24.622;2023-02-17T07:38:56;100531.81;;;4.55;100.00
12203;BME280;6164;42.178;24.622;2023-02-17T07:41:23;100534.50;;;4.66;100.00
12203;BME280;6164;42.178;24.622;2023-02-17T07:43:53;100536.13;;;4.80;100.00
12203;BME280;6164;42.178;24.622;2023-02-17T07:46:20;100527.94;;;4.97;100.00
12203;BME280;6164;42.178;24.622;2023-02-17T07:48:46;100533.84;;;5.11;97.37
12203;BME280;6164;42.178;24.622;2023-02-17T07:51:15;100527.38;;;5.28;96.22
12203;BME280;6164;42.178;24.622;2023-02-17T07:53:42;100518.16;;;5.46;96.45
12203;BME280;6164;42.178;24.622;2023-02-17T07:56:09;100525.81;;;5.60;95.14
12203;BME280;6164;42.178;24.622;2023-02-17T07:58:36;100530.88;;;5.74;94.71
12203;BME280;6164;42.178;24.622;2023-02-17T08:01:04;100524.53;;;5.89;94.03
12203;BME280;6164;42.178;24.622;2023-02-17T08:03:30;100530.25;;;6.05;92.55
12203;BME280;6164;42.178;24.622;2023-02-17T08:05:57;100524.34;;;6.25;91.94
12203;BME280;6164;42.178;24.622;2023-02-17T08:08:24;100523.63;;;6.45;90.15
12203;BME280;6164;42.178;24.622;2023-02-17T08:11:09;100531.72;;;6.64;89.69
12203;BME280;6164;42.178;24.622;2023-02-17T08:13:54;100524.88;;;6.84;89.88
12203;BME280;6164;42.178;24.622;2023-02-17T08:16:20;100525.22;;;7.02;88.02
12203;BME280;6164;42.178;24.622;2023-02-17T08:18:47;100515.72;;;7.21;87.76
12203;BME280;6164;42.178;24.622;2023-02-17T08:21:13;100515.75;;;7.42;88.29
12203;BME280;6164;42.178;24.622;2023-02-17T08:23:41;100527.22;;;7.72;82.76
12203;BME280;6164;42.178;24.622;2023-02-17T08:26:08;100560.94;;;8.50;74.25
12203;BME280;6164;42.178;24.622;2023-02-17T08:28:34;100604.91;;;9.08;67.66
12203;BME280;6164;42.178;24.622;2023-02-17T08:31:01;100623.59;;;9.45;64.61
12203;BME280;6164;42.178;24.622;2023-02-17T08:33:27;100660.72;;;9.91;60.68
12203;BME280;6164;42.178;24.622;2023-02-17T08:35:54;100685.47;;;10.28;57.31
12203;BME280;6164;42.178;24.622;2023-02-17T08:38:20;100723.75;;;10.70;55.00
12203;BME280;6164;42.178;24.622;2023-02-17T08:40:48;100748.00;;;11.02;53.12
12203;BME280;6164;42.178;24.622;2023-02-17T08:43:14;100757.56;;;11.22;52.52
12203;BME280;6164;42.178;24.622;2023-02-17T08:45:41;100784.91;;;11.40;50.88
12203;BME280;6164;42.178;24.622;2023-02-17T08:48:08;100794.28;;;11.62;51.11
12203;BME280;6164;42.178;24.622;2023-02-17T08:50:34;100824.56;;;11.86;49.30
12203;BME280;6164;42.178;24.622;2023-02-17T08:53:00;100842.41;;;12.12;48.42
12203;BME280;6164;42.178;24.622;2023-02-17T08:55:27;100855.97;;;12.26;47.59
12203;BME280;6164;42.178;24.622;2023-02-17T08:57:55;100879.00;;;12.43;46.39
12203;BME280;6164;42.178;24.622;2023-02-17T09:00:21;100893.25;;;12.60;46.13
12203;BME280;6164;42.178;24.622;2023-02-17T09:02:48;100914.63;;;12.76;45.37
12203;BME280;6164;42.178;24.622;2023-02-17T09:05:14;100927.41;;;12.80;44.38
12203;BME280;6164;42.178;24.622;2023-02-17T09:07:41;100945.97;;;12.80;44.05
12203;BME280;6164;42.178;24.622;2023-02-17T09:10:08;100956.19;;;12.75;43.95
12203;BME280;6164;42.178;24.622;2023-02-17T09:12:35;100966.94;;;12.74;43.99
12203;BME280;6164;42.178;24.622;2023-02-17T09:15:03;100962.31;;;12.76;44.40
12203;BME280;6164;42.178;24.622;2023-02-17T09:17:30;100965.91;;;12.84;44.60
12203;BME280;6164;42.178;24.622;2023-02-17T09:19:56;100969.16;;;12.96;43.78
12203;BME280;6164;42.178;24.622;2023-02-17T09:22:23;100996.22;;;12.99;43.21
12203;BME280;6164;42.178;24.622;2023-02-17T09:24:49;101015.28;;;13.12;42.61
12203;BME280;6164;42.178;24.622;2023-02-17T09:27:15;101033.47;;;13.25;42.01
12203;BME280;6164;42.178;24.622;2023-02-17T09:29:42;101062.78;;;13.41;40.54
12203;BME280;6164;42.178;24.622;2023-02-17T09:32:10;101058.25;;;13.51;40.94
12203;BME280;6164;42.178;24.622;2023-02-17T09:34:37;101080.47;;;13.68;40.14
12203;BME280;6164;42.178;24.622;2023-02-17T09:37:08;101109.16;;;13.82;39.60
12203;BME280;6164;42.178;24.622;2023-02-17T09:39:35;101122.03;;;13.94;39.22
12203;BME280;6164;42.178;24.622;2023-02-17T09:42:05;101131.91;;;14.02;38.95
12203;BME280;6164;42.178;24.622;2023-02-17T09:44:33;101155.56;;;14.13;39.24
12203;BME280;6164;42.178;24.622;2023-02-17T09:47:04;101150.91;;;14.32;38.81
12203;BME280;6164;42.178;24.622;2023-02-17T09:49:36;101161.19;;;14.53;38.65
12203;BME280;6164;42.178;24.622;2023-02-17T09:52:08;101160.53;;;14.77;38.98
12203;BME280;6164;42.178;24.622;2023-02-17T09:54:39;101165.72;;;15.12;38.40
12203;BME280;6164;42.178;24.622;2023-02-17T09:57:07;101195.41;;;15.33;37.39
12203;BME280;6164;42.178;24.622;2023-02-17T09:59:40;101206.63;;;15.52;37.35
12203;BME280;6164;42.178;24.622;2023-02-17T10:02:13;101197.56;;;15.71;38.24
12203;BME280;6164;42.178;24.622;2023-02-17T10:04:43;101221.72;;;15.86;36.49
12203;BME280;6164;42.178;24.622;2023-02-17T10:07:13;101247.72;;;16.00;36.22
12203;BME280;6164;42.178;24.622;2023-02-17T10:09:41;101253.03;;;16.00;35.67
12203;BME280;6164;42.178;24.622;2023-02-17T10:12:14;101265.22;;;16.10;35.75
12203;BME280;6164;42.178;24.622;2023-02-17T10:14:44;101248.63;;;16.32;36.64
12203;BME280;6164;42.178;24.622;2023-02-17T10:17:14;101280.09;;;16.37;35.23
12203;BME280;6164;42.178;24.622;2023-02-17T10:19:46;101258.31;;;16.57;36.06
12203;BME280;6164;42.178;24.622;2023-02-17T10:22:17;101287.34;;;16.68;34.69
12203;BME280;6164;42.178;24.622;2023-02-17T10:24:44;101311.34;;;16.68;33.73
12203;BME280;6164;42.178;24.622;2023-02-17T10:32:45;101393.69;;;17.03;32.90
12203;BME280;6164;42.178;24.622;2023-02-17T10:35:16;101396.41;;;17.12;32.70
12203;BME280;6164;42.178;24.622;2023-02-17T10:37:46;101396.72;;;17.25;33.29
12203;BME280;6164;42.178;24.622;2023-02-17T10:40:15;101415.06;;;17.20;32.61
12203;BME280;6164;42.178;24.622;2023-02-17T10:42:45;101413.22;;;17.28;32.96
12203;BME280;6164;42.178;24.622;2023-02-17T10:45:14;101425.22;;;17.40;32.26
12203;BME280;6164;42.178;24.622;2023-02-17T10:47:43;101449.13;;;17.50;31.32
12203;BME280;6164;42.178;24.622;2023-02-17T10:50:14;101450.28;;;17.63;31.61
12203;BME280;6164;42.178;24.622;2023-02-17T10:52:47;101493.38;;;17.52;30.88
12203;BME280;6164;42.178;24.622;2023-02-17T10:55:16;101478.34;;;17.59;31.74
12203;BME280;6164;42.178;24.622;2023-02-17T10:57:45;101472.84;;;17.61;31.65
12203;BME280;6164;42.178;24.622;2023-02-17T11:00:15;101479.81;;;17.62;31.49
12203;BME280;6164;42.178;24.622;2023-02-17T11:02:42;101478.47;;;17.90;31.16
12203;BME280;6164;42.178;24.622;2023-02-17T11:05:19;101495.31;;;17.98;30.54
12203;BME280;6164;42.178;24.622;2023-02-17T11:07:46;101525.06;;;17.79;29.88
12203;BME280;6164;42.178;24.622;2023-02-17T11:10:21;101542.25;;;17.85;29.31
12203;BME280;6164;42.178;24.622;2023-02-17T11:12:51;101530.56;;;18.02;30.30
12203;BME280;6164;42.178;24.622;2023-02-17T11:15:21;101619.59;;;18.26;27.38
12203;BME280;6164;42.178;24.622;2023-02-17T11:17:49;101642.31;;;18.14;27.34
12203;BME280;6164;42.178;24.622;2023-02-17T11:20:32;101681.41;;;18.15;26.70
12203;BME280;6164;42.178;24.622;2023-02-17T11:23:04;101696.97;;;18.28;26.52
12203;BME280;6164;42.178;24.622;2023-02-17T11:25:32;101708.66;;;18.35;26.40
12203;BME280;6164;42.178;24.622;2023-02-17T11:28:00;101728.91;;;18.46;27.02
12203;BME280;6164;42.178;24.622;2023-02-17T11:30:27;101735.88;;;18.38;27.05
12203;BME280;6164;42.178;24.622;2023-02-17T11:32:54;101740.75;;;18.35;27.41
12203;BME280;6164;42.178;24.622;2023-02-17T11:35:24;101745.28;;;18.43;26.87
12203;BME280;6164;42.178;24.622;2023-02-17T11:37:50;101770.38;;;18.50;26.35
12203;BME280;6164;42.178;24.622;2023-02-17T11:40:24;101799.59;;;18.35;26.00
12203;BME280;6164;42.178;24.622;2023-02-17T11:42:56;101784.91;;;18.39;27.01
12203;BME280;6164;42.178;24.622;2023-02-17T11:45:22;101779.91;;;18.52;27.02
12203;BME280;6164;42.178;24.622;2023-02-17T11:47:53;101795.94;;;18.52;27.03
12203;BME280;6164;42.178;24.622;2023-02-17T11:50:25;101810.50;;;18.58;27.21
12203;BME280;6164;42.178;24.622;2023-02-17T11:52:59;101811.34;;;18.58;26.46
12203;BME280;6164;42.178;24.622;2023-02-17T11:55:33;101820.03;;;18.68;26.51
12203;BME280;6164;42.178;24.622;2023-02-17T11:58:05;101809.66;;;18.89;26.37
12203;BME280;6164;42.178;24.622;2023-02-17T12:00:37;101850.31;;;18.85;25.72
12203;BME280;6164;42.178;24.622;2023-02-17T12:05:51;101859.50;;;18.90;26.66
12203;BME280;6164;42.178;24.622;2023-02-17T12:08:21;101879.41;;;18.72;25.91
12203;BME280;6164;42.178;24.622;2023-02-17T12:10:58;101861.84;;;18.77;26.17
12203;BME280;6164;42.178;24.622;2023-02-17T12:13:30;101858.03;;;18.88;26.46
12203;BME280;6164;42.178;24.622;2023-02-17T12:16:08;101858.84;;;18.96;26.16
12203;BME280;6164;42.178;24.622;2023-02-17T12:18:40;101878.25;;;19.06;25.14
12203;BME280;6164;42.178;24.622;2023-02-17T12:21:11;101888.63;;;19.01;25.60
12203;BME280;6164;42.178;24.622;2023-02-17T12:23:55;101890.97;;;19.12;25.29
12203;BME280;6164;42.178;24.622;2023-02-17T12:26:27;101912.22;;;18.98;25.18
12203;BME280;6164;42.178;24.622;2023-02-17T12:29:03;101912.53;;;19.03;25.81
12203;BME280;6164;42.178;24.622;2023-02-17T12:31:38;101931.63;;;19.08;25.51
12203;BME280;6164;42.178;24.622;2023-02-17T12:34:11;101936.47;;;18.96;25.77
12203;BME280;6164;42.178;24.622;2023-02-17T12:36:43;101956.72;;;18.91;25.64
12203;BME280;6164;42.178;24.622;2023-02-17T12:39:12;101945.34;;;18.81;25.77
12203;BME280;6164;42.178;24.622;2023-02-17T12:41:42;101949.84;;;18.80;25.83
12203;BME280;6164;42.178;24.622;2023-02-17T12:44:16;101968.59;;;18.88;24.69
12203;BME280;6164;42.178;24.622;2023-02-17T12:46:45;101960.75;;;19.03;25.55
12203;BME280;6164;42.178;24.622;2023-02-17T12:49:13;101974.78;;;18.97;25.03
12203;BME280;6164;42.178;24.622;2023-02-17T12:51:43;102002.75;;;18.94;25.09
12203;BME280;6164;42.178;24.622;2023-02-17T12:54:15;102007.09;;;18.95;24.75
12203;BME280;6164;42.178;24.622;2023-02-17T12:56:47;101999.91;;;18.96;24.80
12203;BME280;6164;42.178;24.622;2023-02-17T12:59:17;102020.16;;;18.98;24.37
12203;BME280;6164;42.178;24.622;2023-02-17T13:01:47;102030.16;;;18.96;24.62
12203;BME280;6164;42.178;24.622;2023-02-17T13:04:17;102016.16;;;19.10;25.23
12203;BME280;6164;42.178;24.622;2023-02-17T13:06:45;102009.78;;;19.19;25.52
12203;BME280;6164;42.178;24.622;2023-02-17T13:09:16;102027.69;;;19.03;25.64
12203;BME280;6164;42.178;24.622;2023-02-17T13:11:47;102015.66;;;19.07;25.75
12203;BME280;6164;42.178;24.622;2023-02-17T13:14:23;102032.22;;;19.10;25.89